createdAt,value
2018-07-25T00:00:21.533Z,24.88
2018-07-25T00:02:52.511Z,24.90
2018-07-25T00:05:24.227Z,24.85
2018-07-25T00:07:55.355Z,24.71
2018-07-25T00:10:31.440Z,24.59
2018-07-25T00:13:02.453Z,24.66
2018-07-25T00:15:33.396Z,24.52
2018-07-25T00:18:04.441Z,24.36
2018-07-25T00:20:35.437Z,24.52
2018-07-25T00:23:06.805Z,24.43
2018-07-25T00:25:37.590Z,24.28
2018-07-25T00:28:08.651Z,24.20
2018-07-25T00:30:39.565Z,24.17
2018-07-25T00:33:10.473Z,24.13
2018-07-25T00:35:41.502Z,24.05
2018-07-25T00:38:12.550Z,24.04
2018-07-25T00:40:43.503Z,24.08
2018-07-25T00:43:14.502Z,24.05
2018-07-25T00:45:45.586Z,24.24
2018-07-25T00:48:16.536Z,24.05
2018-07-25T00:50:47.526Z,24.21
2018-07-25T00:53:18.538Z,24.19
2018-07-25T00:55:49.510Z,24.18
2018-07-25T00:58:20.509Z,24.23
2018-07-25T01:00:51.562Z,24.27
2018-07-25T01:03:22.567Z,24.25
2018-07-25T01:05:53.565Z,24.24
2018-07-25T01:08:24.545Z,24.28
2018-07-25T01:10:55.569Z,24.28
2018-07-25T01:13:26.572Z,24.32
2018-07-25T01:15:57.592Z,24.33
2018-07-25T01:18:28.538Z,24.39
2018-07-25T01:20:59.521Z,24.35
2018-07-25T01:23:30.493Z,24.38
2018-07-25T01:26:01.539Z,24.43
2018-07-25T01:28:32.461Z,24.43
2018-07-25T01:31:03.433Z,24.28
2018-07-25T01:33:34.475Z,24.11
2018-07-25T01:36:05.437Z,24.18
2018-07-25T01:38:36.452Z,24.23
2018-07-25T01:41:07.465Z,24.22
2018-07-25T01:43:38.458Z,24.18
2018-07-25T01:46:09.515Z,24.06
2018-07-25T01:48:40.482Z,24.12
2018-07-25T01:51:11.459Z,24.08
2018-07-25T01:53:42.422Z,24.10
2018-07-25T01:56:13.509Z,23.99
2018-07-25T01:58:44.470Z,23.96
2018-07-25T02:01:15.529Z,23.96
2018-07-25T02:03:46.415Z,23.85
2018-07-25T02:06:17.579Z,23.78
2018-07-25T02:08:48.481Z,23.66
2018-07-25T02:11:19.468Z,23.55
2018-07-25T02:13:50.444Z,23.52
2018-07-25T02:16:21.450Z,23.38
2018-07-25T02:18:52.502Z,23.38
2018-07-25T02:21:23.526Z,23.30
2018-07-25T02:23:54.517Z,23.34
2018-07-25T02:26:25.526Z,23.47
2018-07-25T02:28:56.553Z,23.48
2018-07-25T02:31:27.586Z,23.41
2018-07-25T02:34:03.745Z,23.24
2018-07-25T02:36:34.686Z,23.33
2018-07-25T02:39:09.556Z,23.29
2018-07-25T02:41:40.513Z,23.11
2018-07-25T02:44:11.519Z,23.26
2018-07-25T02:46:42.519Z,23.12
2018-07-25T02:49:13.531Z,23.15
2018-07-25T02:51:44.602Z,23.13
2018-07-25T02:54:15.585Z,23.12
2018-07-25T02:56:46.590Z,23.16
2018-07-25T02:59:17.517Z,23.11
2018-07-25T03:01:49.027Z,23.10
2018-07-25T03:04:20.399Z,23.10
2018-07-25T03:06:51.498Z,23.00
2018-07-25T03:09:22.477Z,23.00
2018-07-25T03:11:53.528Z,23.00
2018-07-25T03:14:24.782Z,23.02
2018-07-25T03:16:55.600Z,23.10
2018-07-25T03:19:26.753Z,23.10
2018-07-25T03:21:57.620Z,23.05
2018-07-25T03:24:28.528Z,23.05
2018-07-25T03:26:59.553Z,23.09
2018-07-25T03:29:30.795Z,22.97
2018-07-25T03:32:01.569Z,23.03
2018-07-25T03:34:32.457Z,22.98
2018-07-25T03:37:03.454Z,22.92
2018-07-25T03:39:34.416Z,22.85
2018-07-25T03:42:05.474Z,22.85
2018-07-25T03:44:36.463Z,22.77
2018-07-25T03:47:08.208Z,22.68
2018-07-25T03:49:39.306Z,22.76
2018-07-25T03:52:10.365Z,22.75
2018-07-25T03:54:41.366Z,22.80
2018-07-25T03:57:12.362Z,22.70
2018-07-25T03:59:43.349Z,22.85
2018-07-25T04:02:14.393Z,22.76
2018-07-25T04:04:45.456Z,22.68
2018-07-25T04:07:16.428Z,22.69
2018-07-25T04:09:47.418Z,22.74
2018-07-25T04:12:18.480Z,22.71
2018-07-25T04:14:49.464Z,22.62
2018-07-25T04:17:20.693Z,22.73
2018-07-25T04:19:51.565Z,22.53
2018-07-25T04:22:22.473Z,22.49
2018-07-25T04:24:53.440Z,22.57
2018-07-25T04:27:24.465Z,22.45
2018-07-25T04:29:55.426Z,22.60
2018-07-25T04:32:26.431Z,22.71
2018-07-25T04:34:57.433Z,22.68
2018-07-25T04:37:28.582Z,22.32
2018-07-25T04:39:59.477Z,22.34
2018-07-25T04:42:30.458Z,22.47
2018-07-25T04:45:01.495Z,22.28
2018-07-25T04:47:32.495Z,22.24
2018-07-25T04:50:03.485Z,22.23
2018-07-25T04:52:34.473Z,22.28
2018-07-25T04:55:05.529Z,22.28
2018-07-25T04:57:36.488Z,22.36
2018-07-25T05:00:08.565Z,22.33
2018-07-25T05:02:39.564Z,22.29
2018-07-25T05:05:10.497Z,22.33
2018-07-25T05:07:41.485Z,22.25
2018-07-25T05:10:12.671Z,22.11
2018-07-25T05:12:43.562Z,22.16
2018-07-25T05:15:14.491Z,22.22
2018-07-25T05:17:45.495Z,22.08
2018-07-25T05:20:16.463Z,22.17
2018-07-25T05:22:47.540Z,22.25
2018-07-25T05:25:18.473Z,22.37
2018-07-25T05:27:49.422Z,22.40
2018-07-25T05:30:20.754Z,22.34
2018-07-25T05:32:51.558Z,22.43
2018-07-25T05:35:22.474Z,22.44
2018-07-25T05:37:53.526Z,22.32
2018-07-25T05:40:24.461Z,22.26
2018-07-25T05:42:55.509Z,22.39
2018-07-25T05:45:26.681Z,22.55
2018-07-25T05:47:57.505Z,22.57
2018-07-25T05:50:28.525Z,22.61
2018-07-25T05:52:59.479Z,22.64
2018-07-25T05:55:30.461Z,22.81
2018-07-25T05:58:01.469Z,22.66
2018-07-25T06:00:32.830Z,22.84
2018-07-25T06:03:03.420Z,22.94
2018-07-25T06:05:34.357Z,22.99
2018-07-25T06:08:05.364Z,22.93
2018-07-25T06:10:36.374Z,22.97
2018-07-25T06:13:07.459Z,23.14
2018-07-25T06:15:38.481Z,23.44
2018-07-25T06:18:09.448Z,23.50
2018-07-25T06:20:40.471Z,23.77
2018-07-25T06:23:11.448Z,24.00
2018-07-25T06:25:42.448Z,23.97
2018-07-25T06:28:13.514Z,23.97
2018-07-25T06:30:44.485Z,24.13
2018-07-25T06:33:15.494Z,24.38
2018-07-25T06:35:46.522Z,24.44
2018-07-25T06:38:17.517Z,24.56
2018-07-25T06:40:48.494Z,24.80
2018-07-25T06:43:19.536Z,24.86
2018-07-25T06:45:50.495Z,25.21
2018-07-25T06:48:21.481Z,25.56
2018-07-25T06:50:52.517Z,25.66
2018-07-25T06:53:23.505Z,26.15
2018-07-25T06:55:54.517Z,26.07
2018-07-25T06:58:25.504Z,26.20
2018-07-25T07:00:56.477Z,26.47
2018-07-25T07:03:27.516Z,26.59
2018-07-25T07:05:58.508Z,26.37
2018-07-25T07:08:29.494Z,26.63
2018-07-25T07:11:00.516Z,26.82
2018-07-25T07:13:31.529Z,26.69
2018-07-25T07:16:02.494Z,26.77
2018-07-25T07:18:33.481Z,26.89
2018-07-25T07:21:04.496Z,26.79
2018-07-25T07:23:35.542Z,27.10
2018-07-25T07:26:07.391Z,27.42
2018-07-25T07:28:38.667Z,27.46
2018-07-25T07:31:09.545Z,27.22
2018-07-25T07:33:40.513Z,27.62
2018-07-25T07:36:11.517Z,27.91
2018-07-25T07:38:42.502Z,27.87
2018-07-25T07:41:13.501Z,28.17
2018-07-25T07:43:44.505Z,28.08
2018-07-25T07:46:15.491Z,28.14
2018-07-25T07:48:46.492Z,28.22
2018-07-25T07:51:17.483Z,27.97
2018-07-25T07:53:48.497Z,27.95
2018-07-25T07:56:19.404Z,28.39
2018-07-25T07:58:50.507Z,28.56
2018-07-25T08:01:21.560Z,28.57
2018-07-25T08:03:52.507Z,28.52
2018-07-25T08:06:23.490Z,28.78
2018-07-25T08:10:33.598Z,29.13
2018-07-25T08:13:04.493Z,29.53
2018-07-25T08:15:35.550Z,29.68
2018-07-25T08:18:06.517Z,29.47
2018-07-25T08:23:24.386Z,29.81
2018-07-25T08:25:55.489Z,30.15
2018-07-25T08:28:26.493Z,29.75
2018-07-25T08:30:57.494Z,30.40
2018-07-25T08:33:29.023Z,30.64
2018-07-25T08:36:00.293Z,30.94
2018-07-25T08:38:38.620Z,31.72
2018-07-25T08:41:09.502Z,31.89
2018-07-25T08:43:41.621Z,32.08
2018-07-25T08:46:13.399Z,31.94
2018-07-25T08:48:46.394Z,32.43
2018-07-25T08:51:18.600Z,32.43
2018-07-25T08:53:51.928Z,32.15
2018-07-25T08:56:30.723Z,32.67
2018-07-25T08:59:02.304Z,33.20
2018-07-25T09:01:33.391Z,33.82
2018-07-25T09:04:04.480Z,33.24
2018-07-25T09:06:35.552Z,33.73
2018-07-25T09:09:10.714Z,34.28
2018-07-25T09:11:41.802Z,34.05
2018-07-25T09:14:12.496Z,34.30
2018-07-25T09:16:44.418Z,35.31
2018-07-25T09:19:15.648Z,34.97
2018-07-25T09:21:46.560Z,34.73
2018-07-25T09:24:17.503Z,34.77
2018-07-25T09:26:48.482Z,34.76
2018-07-25T09:29:19.502Z,35.03
2018-07-25T09:31:50.482Z,35.65
2018-07-25T09:34:21.518Z,35.64
2018-07-25T09:36:52.501Z,35.40
2018-07-25T09:39:23.473Z,36.25
2018-07-25T09:41:54.514Z,36.35
2018-07-25T09:44:25.486Z,36.50
2018-07-25T09:46:56.606Z,36.21
2018-07-25T09:49:27.507Z,37.00
2018-07-25T09:51:58.490Z,35.23
2018-07-25T09:54:29.489Z,36.46
2018-07-25T09:57:00.651Z,36.56
2018-07-25T09:59:31.589Z,37.15
2018-07-25T10:02:02.588Z,37.42
2018-07-25T10:04:33.500Z,36.84
2018-07-25T10:07:04.597Z,36.01
2018-07-25T10:09:35.473Z,36.30
2018-07-25T10:12:06.516Z,36.21
2018-07-25T10:14:37.501Z,36.45
2018-07-25T10:17:08.505Z,36.95
2018-07-25T10:19:39.502Z,37.23
2018-07-25T10:22:10.530Z,37.71
2018-07-25T10:24:41.622Z,37.28
2018-07-25T10:27:12.474Z,37.96
2018-07-25T10:29:44.497Z,37.33
2018-07-25T10:32:16.388Z,38.66
2018-07-25T10:34:47.501Z,38.37
2018-07-25T10:37:18.533Z,38.20
2018-07-25T10:39:49.498Z,38.16
2018-07-25T10:42:20.496Z,37.87
2018-07-25T10:44:51.686Z,38.22
2018-07-25T10:47:22.563Z,38.52
2018-07-25T10:49:53.513Z,36.89
2018-07-25T10:52:24.524Z,36.92
2018-07-25T10:54:55.493Z,36.84
2018-07-25T10:57:26.521Z,38.31
2018-07-25T10:59:57.477Z,38.85
2018-07-25T11:02:28.485Z,38.76
2018-07-25T11:04:59.696Z,38.30
2018-07-25T11:07:30.658Z,39.09
2018-07-25T11:10:01.553Z,38.82
2018-07-25T11:12:32.507Z,39.19
2018-07-25T11:15:03.514Z,38.85
2018-07-25T11:17:34.496Z,38.64
2018-07-25T11:20:06.308Z,39.27
2018-07-25T11:22:37.371Z,38.10
2018-07-25T11:25:08.377Z,38.01
2018-07-25T11:27:39.512Z,37.49
2018-07-25T11:30:10.469Z,38.32
2018-07-25T11:32:42.491Z,38.48
2018-07-25T11:35:13.424Z,38.92
2018-07-25T11:37:44.438Z,39.41
2018-07-25T11:40:15.449Z,39.35
2018-07-25T11:42:46.471Z,38.04
2018-07-25T11:45:17.457Z,37.38
2018-07-25T11:47:48.497Z,37.04
2018-07-25T11:50:19.467Z,38.97
2018-07-25T11:52:50.458Z,38.13
2018-07-25T11:55:21.459Z,38.18
2018-07-25T11:57:52.597Z,38.96
2018-07-25T12:00:23.475Z,39.47
2018-07-25T12:02:54.524Z,39.12
2018-07-25T12:05:25.726Z,39.48
2018-07-25T12:07:56.562Z,37.93
2018-07-25T12:10:27.459Z,37.71
2018-07-25T12:12:58.518Z,37.19
2018-07-25T12:15:29.433Z,38.93
2018-07-25T12:18:00.495Z,38.58
2018-07-25T12:20:31.462Z,39.04
2018-07-25T12:23:02.463Z,39.67
2018-07-25T12:25:33.436Z,39.97
2018-07-25T12:28:04.441Z,39.88
2018-07-25T12:30:35.456Z,39.80
2018-07-25T12:33:06.570Z,40.04
2018-07-25T12:35:37.469Z,40.49
2018-07-25T12:38:08.458Z,40.28
2018-07-25T12:40:39.449Z,39.58
2018-07-25T12:43:10.481Z,40.19
2018-07-25T12:45:41.457Z,39.73
2018-07-25T12:48:12.518Z,40.00
2018-07-25T12:50:43.485Z,40.71
2018-07-25T12:53:14.523Z,39.92
2018-07-25T12:55:45.449Z,39.75
2018-07-25T12:58:16.457Z,40.03
2018-07-25T13:00:47.681Z,40.45
2018-07-25T13:03:18.488Z,39.79
2018-07-25T13:05:49.444Z,40.79
2018-07-25T13:08:20.488Z,40.43
2018-07-25T13:10:51.569Z,41.10
2018-07-25T13:13:22.525Z,40.25
2018-07-25T13:15:53.531Z,41.02
2018-07-25T13:18:24.482Z,40.96
2018-07-25T13:20:55.512Z,40.67
2018-07-25T13:23:26.532Z,39.68
2018-07-25T13:25:58.398Z,39.09
2018-07-25T13:28:29.613Z,38.22
2018-07-25T13:31:00.501Z,38.50
2018-07-25T13:33:31.438Z,39.30
2018-07-25T13:36:02.499Z,39.73
2018-07-25T13:38:33.556Z,39.47
2018-07-25T13:41:04.694Z,39.76
2018-07-25T13:43:35.672Z,39.75
2018-07-25T13:46:06.710Z,39.27
2018-07-25T13:48:37.521Z,39.27
2018-07-25T13:51:08.502Z,39.54
2018-07-25T13:53:39.485Z,38.60
2018-07-25T13:56:11.029Z,38.05
2018-07-25T13:58:42.299Z,37.47
2018-07-25T14:01:13.370Z,37.91
2018-07-25T14:03:44.380Z,38.11
2018-07-25T14:06:15.393Z,38.56
2018-07-25T14:08:46.493Z,38.48
2018-07-25T14:11:17.709Z,38.11
2018-07-25T14:13:48.574Z,39.17
2018-07-25T14:16:19.469Z,39.00
2018-07-25T14:18:50.474Z,38.02
2018-07-25T14:21:21.452Z,37.87
2018-07-25T14:23:52.560Z,38.49
2018-07-25T14:26:23.450Z,38.94
2018-07-25T14:28:56.063Z,38.94
2018-07-25T14:31:27.401Z,38.76
2018-07-25T14:33:58.473Z,38.72
2018-07-25T14:36:29.466Z,38.41
2018-07-25T14:39:00.611Z,38.78
2018-07-25T14:41:31.510Z,38.33
2018-07-25T14:44:02.482Z,39.24
2018-07-25T14:46:33.448Z,39.28
2018-07-25T14:49:04.637Z,39.14
2018-07-25T14:51:35.564Z,39.41
2018-07-25T14:54:06.579Z,39.29
2018-07-25T14:56:37.492Z,38.98
2018-07-25T14:59:08.462Z,38.67
2018-07-25T15:01:39.457Z,39.21
2018-07-25T15:04:10.477Z,38.17
2018-07-25T15:06:41.463Z,38.89
2018-07-25T15:09:12.665Z,38.75
2018-07-25T15:11:43.549Z,38.13
2018-07-25T15:14:14.484Z,38.32
2018-07-25T15:16:45.501Z,38.12
2018-07-25T15:19:16.460Z,37.82
2018-07-25T15:21:47.405Z,37.47
2018-07-25T15:24:18.478Z,36.96
2018-07-25T15:26:49.484Z,37.98
2018-07-25T15:29:20.493Z,37.53
2018-07-25T15:31:51.440Z,37.24
2018-07-25T15:34:22.504Z,37.96
2018-07-25T15:36:54.397Z,37.58
2018-07-25T15:39:27.329Z,36.37
2018-07-25T15:41:59.457Z,37.13
2018-07-25T15:44:30.615Z,36.59
2018-07-25T15:47:01.529Z,36.96
2018-07-25T15:49:32.461Z,36.46
2018-07-25T15:52:03.457Z,36.67
2018-07-25T15:54:34.409Z,36.66
2018-07-25T15:57:05.493Z,35.84
2018-07-25T15:59:36.512Z,36.37
2018-07-25T16:02:07.645Z,36.20
2018-07-25T16:04:38.532Z,36.60
2018-07-25T16:07:09.458Z,36.38
2018-07-25T16:09:40.528Z,36.13
2018-07-25T16:12:11.522Z,36.49
2018-07-25T16:14:42.478Z,35.96
2018-07-25T16:17:13.453Z,36.19
2018-07-25T16:19:44.461Z,36.03
2018-07-25T16:22:15.458Z,35.99
2018-07-25T16:24:47.261Z,36.11
2018-07-25T16:27:18.362Z,35.89
2018-07-25T16:29:49.443Z,36.14
2018-07-25T16:32:20.679Z,36.16
2018-07-25T16:34:51.561Z,35.91
2018-07-25T16:37:22.480Z,36.04
2018-07-25T16:39:53.498Z,35.70
2018-07-25T16:42:24.520Z,35.33
2018-07-25T16:44:55.451Z,35.56
2018-07-25T16:47:26.511Z,35.18
2018-07-25T16:49:57.569Z,34.86
2018-07-25T16:52:28.465Z,35.05
2018-07-25T16:54:59.460Z,34.79
2018-07-25T16:57:30.448Z,34.73
2018-07-25T17:00:01.452Z,34.59
2018-07-25T17:02:32.552Z,34.50
2018-07-25T17:05:03.519Z,34.66
2018-07-25T17:07:34.457Z,34.37
2018-07-25T17:10:06.028Z,34.00
2018-07-25T17:12:37.269Z,34.02
2018-07-25T17:15:08.625Z,33.83
2018-07-25T17:17:39.501Z,33.91
2018-07-25T17:20:10.499Z,33.84
2018-07-25T17:22:41.534Z,33.74
2018-07-25T17:25:12.462Z,33.79
2018-07-25T17:27:43.514Z,33.59
2018-07-25T17:30:14.530Z,33.41
2018-07-25T17:32:45.490Z,33.15
2018-07-25T17:35:16.512Z,32.58
2018-07-25T17:37:47.492Z,32.24
2018-07-25T17:40:18.508Z,31.72
2018-07-25T17:42:49.518Z,31.47
2018-07-25T17:45:20.521Z,31.00
2018-07-25T17:47:51.534Z,30.65
2018-07-25T17:50:22.526Z,30.89
2018-07-25T17:52:53.551Z,30.53
2018-07-25T17:55:24.543Z,30.57
2018-07-25T17:57:55.834Z,30.09
2018-07-25T18:00:26.292Z,29.75
2018-07-25T18:02:57.389Z,30.17
2018-07-25T18:05:28.514Z,30.09
2018-07-25T18:07:59.525Z,30.24
2018-07-25T18:10:30.510Z,29.86
2018-07-25T18:13:06.785Z,29.60
2018-07-25T18:15:37.560Z,29.22
2018-07-25T18:18:08.509Z,29.14
2018-07-25T18:20:39.538Z,29.09
2018-07-25T18:23:10.522Z,29.22
2018-07-25T18:25:41.506Z,29.15
2018-07-25T18:28:12.521Z,29.40
2018-07-25T18:30:43.538Z,29.28
2018-07-25T18:33:14.484Z,29.37
2018-07-25T18:35:45.494Z,29.17
2018-07-25T18:38:16.426Z,29.46
2018-07-25T18:40:47.586Z,29.49
2018-07-25T18:43:18.525Z,29.52
2018-07-25T18:45:49.461Z,29.60
2018-07-25T18:48:20.453Z,29.47
2018-07-25T18:50:51.794Z,29.46
2018-07-25T18:53:22.590Z,29.51
2018-07-25T18:55:53.576Z,29.58
2018-07-25T18:58:24.482Z,29.49
2018-07-25T19:00:55.470Z,29.58
2018-07-25T19:03:26.473Z,29.40
2018-07-25T19:05:57.445Z,29.32
2018-07-25T19:08:28.474Z,29.40
2018-07-25T19:10:59.453Z,29.46
2018-07-25T19:13:35.021Z,29.47
2018-07-25T19:16:07.180Z,29.33
2018-07-25T19:18:38.286Z,29.42
2018-07-25T19:21:09.357Z,29.33
2018-07-25T19:23:40.450Z,29.16
2018-07-25T19:26:11.502Z,29.21
2018-07-25T19:28:42.493Z,29.11
2018-07-25T19:31:13.517Z,29.11
2018-07-25T19:33:44.489Z,29.18
2018-07-25T19:36:15.526Z,29.04
2018-07-25T19:38:46.488Z,28.98
2018-07-25T19:41:17.488Z,28.94
2018-07-25T19:43:48.516Z,28.98
2018-07-25T19:46:19.501Z,28.90
2018-07-25T19:48:50.510Z,28.92
2018-07-25T19:51:21.541Z,28.79
2018-07-25T19:53:52.500Z,28.68
2018-07-25T19:56:23.529Z,28.76
2018-07-25T19:58:54.533Z,28.70
2018-07-25T20:01:25.509Z,28.75
2018-07-25T20:03:56.499Z,28.83
2018-07-25T20:06:27.528Z,28.79
2018-07-25T20:08:58.478Z,28.78
2018-07-25T20:11:29.608Z,28.72
2018-07-25T20:14:05.635Z,28.79
2018-07-25T20:16:36.563Z,28.82
2018-07-25T20:19:07.479Z,28.74
2018-07-25T20:21:38.489Z,28.58
2018-07-25T20:24:09.513Z,28.59
2018-07-25T20:26:40.507Z,28.62
2018-07-25T20:29:11.530Z,28.49
2018-07-25T20:31:42.534Z,28.39
2018-07-25T20:34:13.489Z,28.46
2018-07-25T20:36:44.622Z,28.40
2018-07-25T20:39:15.685Z,28.37
2018-07-25T20:41:46.563Z,28.39
2018-07-25T20:44:17.521Z,28.38
2018-07-25T20:46:48.557Z,28.38
2018-07-25T20:49:19.494Z,28.35
2018-07-25T20:51:50.493Z,28.32
2018-07-25T20:54:21.521Z,28.30
2018-07-25T20:56:52.624Z,28.28
2018-07-25T20:59:23.553Z,28.21
2018-07-25T21:01:54.501Z,28.31
2018-07-25T21:04:25.493Z,28.30
2018-07-25T21:06:56.502Z,28.23
2018-07-25T21:09:27.488Z,28.24
2018-07-25T21:11:58.477Z,28.24
2018-07-25T21:14:29.514Z,28.23
2018-07-25T21:17:00.546Z,28.19
2018-07-25T21:19:31.489Z,28.15
2018-07-25T21:22:02.521Z,28.17
2018-07-25T21:24:33.499Z,28.10
2018-07-25T21:27:04.533Z,28.07
2018-07-25T21:29:35.496Z,27.99
2018-07-25T21:32:06.572Z,28.03
2018-07-25T21:34:37.501Z,27.95
2018-07-25T21:37:08.450Z,27.89
2018-07-25T21:39:39.493Z,27.92
2018-07-25T21:42:10.523Z,27.85
2018-07-25T21:44:41.457Z,27.86
2018-07-25T21:47:12.475Z,27.84
2018-07-25T21:49:43.438Z,27.63
2018-07-25T21:52:14.498Z,27.64
2018-07-25T21:54:45.515Z,27.69
2018-07-25T21:57:16.505Z,27.49
2018-07-25T21:59:47.547Z,27.33
2018-07-25T22:02:18.544Z,27.28
2018-07-25T22:04:49.493Z,27.43
2018-07-25T22:07:20.478Z,27.18
2018-07-25T22:09:51.487Z,27.22
2018-07-25T22:12:22.503Z,27.29
2018-07-25T22:14:53.445Z,27.19
2018-07-25T22:17:24.493Z,27.22
2018-07-25T22:19:55.468Z,26.94
2018-07-25T22:22:26.495Z,26.87
2018-07-25T22:24:57.395Z,26.93
2018-07-25T22:27:28.421Z,26.70
2018-07-25T22:29:59.502Z,26.70
2018-07-25T22:32:30.509Z,26.44
2018-07-25T22:35:01.488Z,26.60
2018-07-25T22:37:32.504Z,26.79
2018-07-25T22:40:03.495Z,26.71
2018-07-25T22:42:34.510Z,26.64
2018-07-25T22:45:05.496Z,26.64
2018-07-25T22:47:36.477Z,26.57
2018-07-25T22:50:07.502Z,26.55
2018-07-25T22:52:38.489Z,26.58
2018-07-25T22:55:09.503Z,26.56
2018-07-25T22:57:40.504Z,26.61
2018-07-25T23:00:11.511Z,26.49
2018-07-25T23:02:42.473Z,26.41
2018-07-25T23:05:13.492Z,26.34
2018-07-25T23:07:44.513Z,26.41
2018-07-25T23:10:15.484Z,26.32
2018-07-25T23:12:46.507Z,26.38
2018-07-25T23:15:17.498Z,26.36
2018-07-25T23:17:48.517Z,26.39
2018-07-25T23:20:19.497Z,26.29
2018-07-25T23:22:57.463Z,26.39
2018-07-25T23:25:28.902Z,26.31
2018-07-25T23:28:00.696Z,26.33
2018-07-25T23:30:31.481Z,26.27
2018-07-25T23:33:02.465Z,26.35
2018-07-25T23:35:33.420Z,26.38
2018-07-25T23:38:04.488Z,26.34
2018-07-25T23:40:35.458Z,26.38
2018-07-25T23:43:06.493Z,26.33
2018-07-25T23:45:37.456Z,26.38
2018-07-25T23:48:08.469Z,26.34
2018-07-25T23:50:39.474Z,26.36
2018-07-25T23:53:10.477Z,26.32
2018-07-25T23:55:41.456Z,26.31
2018-07-25T23:58:12.477Z,26.29
